EGPF

Glasgow International Airport

Glasgow, United Kingdom
METAR EGPF 131020Z AUTO 11013KT 9999 NCD 04/M01 Q1017
Observed Flight Rules
Dec-13 @ 10:20 UTC (31 minutes ago) Visual Flight Rules
Wind Visibility Clouds
110° at 13 knots 10,000+ meters
  • Clear skies
Temperatures Readings
Current 4°C / 39°F
Dewpoint -1°C / 30°F
Humidity 70%
Altimeter 30.03" Hg
Pressure 1017 hPa
Elevation 8
METAR EGPF 131020Z AUTO 11013KT 9999 NCD 04/M01 Q1017
Observed Flight Rules
Dec-13 @ 10:20 UTC
(31 minutes ago)
VFR
Wind Visibility
110° at 13 knots 10,000+ meters
Clouds
  • Clear skies
Temperature Dewpoint
4°C / 39°F -1°C / 30°F
Humidity Altimeter Pressure
70% 30.03" Hg 1017 hPa